createdAt,value
2017-04-22T00:00:44.034Z,1012.11
2017-04-22T00:01:52.989Z,1012.09
2017-04-22T00:03:02.262Z,1012.18
2017-04-22T00:04:11.210Z,1012.27
2017-04-22T00:05:20.473Z,1012.13
2017-04-22T00:06:29.421Z,1012.11
2017-04-22T00:07:38.368Z,1012.05
2017-04-22T00:08:47.316Z,1012.07
2017-04-22T00:09:56.275Z,1012.1
2017-04-22T00:11:05.565Z,1012.02
2017-04-22T00:12:14.535Z,1012.08
2017-04-22T00:13:23.487Z,1012.05
2017-04-22T00:14:32.470Z,1012.1
2017-04-22T00:15:41.417Z,1012.11
2017-04-22T00:16:50.619Z,1012.11
2017-04-22T00:17:59.583Z,1012.2
2017-04-22T00:19:08.622Z,1012.18
2017-04-22T00:20:17.585Z,1012.22
2017-04-22T00:21:26.535Z,1012.19
2017-04-22T00:22:35.817Z,1012.24
2017-04-22T00:23:44.759Z,1012.22
2017-04-22T00:24:53.715Z,1012.24
2017-04-22T00:26:03.053Z,1012.21
2017-04-22T00:27:12.000Z,1012.27
2017-04-22T00:28:21.249Z,1012.25
2017-04-22T00:29:30.197Z,1012.19
2017-04-22T00:30:39.150Z,1012.25
2017-04-22T00:31:48.185Z,1012.23
2017-04-22T00:32:57.134Z,1012.26
2017-04-22T00:34:06.335Z,1012.23
2017-04-22T00:35:15.374Z,1012.19
2017-04-22T00:36:24.421Z,1012.24
2017-04-22T00:37:33.382Z,1012.23
2017-04-22T00:38:42.329Z,1012.25
2017-04-22T00:39:51.578Z,1012.32
2017-04-22T00:41:00.606Z,1012.25
2017-04-22T00:42:09.565Z,1012.33
2017-04-22T00:43:18.514Z,1012.24
2017-04-22T00:44:27.462Z,1012.21
2017-04-22T00:45:36.661Z,1012.26
2017-04-22T00:46:45.611Z,1012.32
2017-04-22T00:47:54.556Z,1012.29
2017-04-22T00:49:03.507Z,1012.27
2017-04-22T00:50:12.457Z,1012.33
2017-04-22T00:51:21.651Z,1012.32
2017-04-22T00:52:30.633Z,1012.4
2017-04-22T00:53:40.139Z,1012.36
2017-04-22T00:54:49.090Z,1012.43
2017-04-22T00:55:58.087Z,1012.41
2017-04-22T00:57:07.280Z,1012.44
2017-04-22T00:58:16.984Z,1012.43
2017-04-22T00:59:26.058Z,1012.44
2017-04-22T01:00:35.006Z,1012.47
2017-04-22T01:01:44.232Z,1012.42
2017-04-22T01:02:53.430Z,1012.47
2017-04-22T01:04:02.380Z,1012.44
2017-04-22T01:05:11.425Z,1012.44
2017-04-22T01:06:20.371Z,1012.47
2017-04-22T01:07:29.330Z,1012.47
2017-04-22T01:08:38.526Z,1012.42
2017-04-22T01:09:47.476Z,1012.48
2017-04-22T01:10:56.424Z,1012.6
2017-04-22T01:12:05.367Z,1012.54
2017-04-22T01:13:14.317Z,1012.57
2017-04-22T01:14:23.523Z,1012.6
2017-04-22T01:15:32.472Z,1012.59
2017-04-22T01:16:41.420Z,1012.59
2017-04-22T01:17:50.367Z,1012.59
2017-04-22T01:18:59.313Z,1012.63
2017-04-22T01:20:08.568Z,1012.58
2017-04-22T01:21:17.544Z,1012.64
2017-04-22T01:22:26.493Z,1012.69
2017-04-22T01:23:35.531Z,1012.6
2017-04-22T01:24:44.479Z,1012.64
2017-04-22T01:25:53.731Z,1012.56
2017-04-22T01:27:03.008Z,1012.62
2017-04-22T01:28:11.966Z,1012.65
2017-04-22T01:29:20.926Z,1012.63
2017-04-22T01:30:29.876Z,1012.58
2017-04-22T01:31:39.122Z,1012.57
2017-04-22T01:32:48.070Z,1012.57
2017-04-22T01:33:57.023Z,1012.61
2017-04-22T01:35:06.062Z,1012.61
2017-04-22T01:36:15.012Z,1012.58
2017-04-22T01:37:24.264Z,1012.59
2017-04-22T01:38:33.316Z,1012.58
2017-04-22T01:39:42.269Z,1012.64
2017-04-22T01:40:51.224Z,1012.63
2017-04-22T01:42:00.263Z,1012.62
2017-04-22T01:43:09.461Z,1012.63
2017-04-22T01:44:18.413Z,1012.69
2017-04-22T01:45:27.445Z,1012.72
2017-04-22T01:46:36.388Z,1012.65
2017-04-22T01:47:45.348Z,1012.73
2017-04-22T01:48:54.550Z,1012.62
2017-04-22T01:50:03.504Z,1012.64
2017-04-22T01:51:12.451Z,1012.67
2017-04-22T01:52:21.404Z,1012.66
2017-04-22T01:53:30.672Z,1012.72
2017-04-22T01:54:39.866Z,1012.61
2017-04-22T01:55:48.822Z,1012.58
2017-04-22T01:56:57.772Z,1012.64
2017-04-22T01:58:06.810Z,1012.58
2017-04-22T01:59:15.763Z,1012.54
2017-04-22T02:00:24.995Z,1012.58
2017-04-22T02:01:33.947Z,1012.56
2017-04-22T02:02:42.897Z,1012.52
2017-04-22T02:03:51.849Z,1012.55
2017-04-22T02:05:00.804Z,1012.48
2017-04-22T02:06:10.331Z,1012.54
2017-04-22T02:07:19.281Z,1012.58
2017-04-22T02:08:28.229Z,1012.51
2017-04-22T02:09:37.171Z,1012.51
2017-04-22T02:10:46.120Z,1012.47
2017-04-22T02:11:55.321Z,1012.51
2017-04-22T02:13:04.292Z,1012.46
2017-04-22T02:14:13.237Z,1012.46
2017-04-22T02:15:22.189Z,1012.42
2017-04-22T02:16:31.149Z,1012.47
2017-04-22T02:17:40.418Z,1012.56
2017-04-22T02:18:49.688Z,1012.52
2017-04-22T02:19:58.792Z,1012.53
2017-04-22T02:21:07.741Z,1012.45
2017-04-22T02:22:16.742Z,1012.47
2017-04-22T02:23:26.080Z,1012.45
2017-04-22T02:24:35.461Z,1012.41
2017-04-22T02:25:44.594Z,1012.37
2017-04-22T02:26:53.542Z,1012.36
2017-04-22T02:28:02.489Z,1012.36
2017-04-22T02:29:11.692Z,1012.41
2017-04-22T02:30:20.648Z,1012.41
2017-04-22T02:31:29.597Z,1012.41
2017-04-22T02:32:38.554Z,1012.42
2017-04-22T02:33:47.503Z,1012.47
2017-04-22T02:34:57.078Z,1012.5
2017-04-22T02:36:06.111Z,1012.37
2017-04-22T02:37:15.061Z,1012.41
2017-04-22T02:38:24.014Z,1012.41
2017-04-22T02:39:32.959Z,1012.43
2017-04-22T02:40:42.496Z,1012.36
2017-04-22T02:41:51.860Z,1012.36
2017-04-22T02:43:00.810Z,1012.42
2017-04-22T02:44:09.783Z,1012.38
2017-04-22T02:45:18.747Z,1012.36
2017-04-22T02:46:27.944Z,1012.42
2017-04-22T02:47:36.891Z,1012.36
2017-04-22T02:48:45.919Z,1012.44
2017-04-22T02:49:54.875Z,1012.38
2017-04-22T02:51:03.917Z,1012.41
2017-04-22T02:52:13.120Z,1012.44
2017-04-22T02:53:22.071Z,1012.4
2017-04-22T02:54:31.352Z,1012.42
2017-04-22T02:55:40.296Z,1012.36
2017-04-22T02:56:49.244Z,1012.38
2017-04-22T02:57:58.444Z,1012.4
2017-04-22T02:59:07.400Z,1012.35
2017-04-22T03:00:16.350Z,1012.37
2017-04-22T03:01:25.383Z,1012.28
2017-04-22T03:02:34.412Z,1012.35
2017-04-22T03:03:43.686Z,1012.36
2017-04-22T03:04:52.965Z,1012.38
2017-04-22T03:06:01.923Z,1012.33
2017-04-22T03:07:10.865Z,1012.32
2017-04-22T03:08:19.817Z,1012.29
2017-04-22T03:09:29.018Z,1012.27
2017-04-22T03:10:37.963Z,1012.3
2017-04-22T03:11:46.909Z,1012.3
2017-04-22T03:12:55.879Z,1012.28
2017-04-22T03:14:05.152Z,1012.33
2017-04-22T03:15:14.364Z,1012.29
2017-04-22T03:16:23.636Z,1012.25
2017-04-22T03:17:32.582Z,1012.29
2017-04-22T03:18:41.535Z,1012.28
2017-04-22T03:19:50.479Z,1012.33
2017-04-22T03:20:59.733Z,1012.39
2017-04-22T03:22:08.711Z,1012.28
2017-04-22T03:23:17.654Z,1012.3
2017-04-22T03:24:26.604Z,1012.35
2017-04-22T03:25:35.878Z,1012.37
2017-04-22T03:26:45.401Z,1012.36
2017-04-22T03:27:54.347Z,1012.39
2017-04-22T03:29:03.297Z,1012.4
2017-04-22T03:30:12.435Z,1012.4
2017-04-22T03:31:21.387Z,1012.44
2017-04-22T03:32:30.720Z,1012.38
2017-04-22T03:33:39.666Z,1012.41
2017-04-22T03:34:48.618Z,1012.43
2017-04-22T03:35:57.567Z,1012.38
2017-04-22T03:37:06.519Z,1012.47
2017-04-22T03:38:15.857Z,1012.46
2017-04-22T03:39:24.811Z,1012.41
2017-04-22T03:40:33.757Z,1012.46
2017-04-22T03:41:42.793Z,1012.48
2017-04-22T03:42:51.741Z,1012.47
2017-04-22T03:44:00.943Z,1012.43
2017-04-22T03:45:09.891Z,1012.49
2017-04-22T03:46:18.942Z,1012.51
2017-04-22T03:47:27.892Z,1012.58
2017-04-22T03:48:36.869Z,1012.52
2017-04-22T03:49:46.067Z,1012.57
2017-04-22T03:50:55.011Z,1012.61
2017-04-22T03:52:03.952Z,1012.6
2017-04-22T03:53:12.896Z,1012.6
2017-04-22T03:54:21.849Z,1012.55
2017-04-22T03:55:31.076Z,1012.56
2017-04-22T03:56:40.021Z,1012.53
2017-04-22T03:57:48.969Z,1012.55
2017-04-22T03:58:58.002Z,1012.51
2017-04-22T04:00:06.946Z,1012.48
2017-04-22T04:01:16.155Z,1012.53
2017-04-22T04:02:25.106Z,1012.52
2017-04-22T04:03:34.048Z,1012.46
2017-04-22T04:04:42.995Z,1012.52
2017-04-22T04:05:51.946Z,1012.47
2017-04-22T04:07:01.147Z,1012.5
2017-04-22T04:08:10.189Z,1012.5
2017-04-22T04:09:19.179Z,1012.51
2017-04-22T04:10:28.124Z,1012.5
2017-04-22T04:11:37.068Z,1012.51
2017-04-22T04:12:46.319Z,1012.55
2017-04-22T04:13:55.272Z,1012.54
2017-04-22T04:15:04.221Z,1012.53
2017-04-22T04:16:13.165Z,1012.57
2017-04-22T04:17:22.444Z,1012.58
2017-04-22T04:18:31.641Z,1012.66
2017-04-22T04:19:41.007Z,1012.65
2017-04-22T04:20:49.952Z,1012.61
2017-04-22T04:21:58.905Z,1012.68
2017-04-22T04:23:07.851Z,1012.65
2017-04-22T04:24:17.052Z,1012.66
2017-04-22T04:25:26.001Z,1012.68
2017-04-22T04:26:34.956Z,1012.65
2017-04-22T04:27:43.993Z,1012.62
2017-04-22T04:28:52.939Z,1012.67
2017-04-22T04:30:02.138Z,1012.62
2017-04-22T04:31:11.086Z,1012.64
2017-04-22T04:32:20.032Z,1012.68
2017-04-22T04:33:28.978Z,1012.64
2017-04-22T04:34:38.016Z,1012.68
2017-04-22T04:35:47.267Z,1012.7
2017-04-22T04:36:56.216Z,1012.71
2017-04-22T04:38:05.365Z,1012.77
2017-04-22T04:39:14.317Z,1012.8
2017-04-22T04:40:23.287Z,1012.73
2017-04-22T04:41:32.535Z,1012.76
2017-04-22T04:42:41.510Z,1012.73
2017-04-22T04:43:50.459Z,1012.78
2017-04-22T04:44:59.406Z,1012.79
2017-04-22T04:46:08.358Z,1012.78
2017-04-22T04:47:17.564Z,1012.74
2017-04-22T04:48:26.507Z,1012.75
2017-04-22T04:49:35.809Z,1012.76
2017-04-22T04:50:44.759Z,1012.8
2017-04-22T04:51:53.707Z,1012.88
2017-04-22T04:53:04.654Z,1012.85
2017-04-22T04:54:13.606Z,1012.82
2017-04-22T04:55:22.554Z,1012.87
2017-04-22T04:56:31.618Z,1012.87
2017-04-22T04:57:40.588Z,1012.94
2017-04-22T04:58:49.785Z,1012.93
2017-04-22T04:59:59.488Z,1013.02
2017-04-22T05:01:08.766Z,1013.03
2017-04-22T05:02:17.710Z,1013.07
2017-04-22T05:03:26.861Z,1013.07
2017-04-22T05:04:36.066Z,1013.06
2017-04-22T05:05:45.028Z,1013.11
2017-04-22T05:06:53.986Z,1013.08
2017-04-22T05:08:02.930Z,1013.08
2017-04-22T05:09:11.883Z,1013.05
2017-04-22T05:10:21.083Z,1013.09
2017-04-22T05:11:30.030Z,1013.11
2017-04-22T05:12:39.070Z,1013.08
2017-04-22T05:13:48.105Z,1013.13
2017-04-22T05:14:57.135Z,1013.09
2017-04-22T05:16:06.395Z,1013.07
2017-04-22T05:17:15.348Z,1013.11
2017-04-22T05:18:24.297Z,1013.18
2017-04-22T05:19:33.285Z,1013.14
2017-04-22T05:20:42.503Z,1013.2
2017-04-22T05:21:51.749Z,1013.21
2017-04-22T05:23:00.706Z,1013.2
2017-04-22T05:24:09.666Z,1013.21
2017-04-22T05:25:18.613Z,1013.26
2017-04-22T05:26:27.557Z,1013.22
2017-04-22T05:27:36.802Z,1013.22
2017-04-22T05:28:45.839Z,1013.24
2017-04-22T05:29:55.111Z,1013.18
2017-04-22T05:31:04.065Z,1013.14
2017-04-22T05:32:13.015Z,1013.17
2017-04-22T05:33:22.538Z,1013.14
2017-04-22T05:34:31.492Z,1013.16
2017-04-22T05:35:40.462Z,1013.2
2017-04-22T05:36:49.404Z,1013.14
2017-04-22T05:37:58.686Z,1013.24
2017-04-22T05:39:07.879Z,1013.18
2017-04-22T05:40:16.914Z,1013.18
2017-04-22T05:41:25.861Z,1013.21
2017-04-22T05:42:34.809Z,1013.2
2017-04-22T05:43:43.846Z,1013.17
2017-04-22T05:44:53.052Z,1013.19
2017-04-22T05:46:02.011Z,1013.18
2017-04-22T05:47:11.189Z,1013.22
2017-04-22T05:48:20.494Z,1013.2
2017-04-22T05:49:29.454Z,1013.21
2017-04-22T05:50:38.705Z,1013.25
2017-04-22T05:51:47.652Z,1013.04
2017-04-22T05:52:56.603Z,1013.2
2017-04-22T05:54:05.550Z,1013.3
2017-04-22T05:55:14.506Z,1013.2
2017-04-22T05:56:23.711Z,1013.26
2017-04-22T05:57:32.662Z,1013.21
2017-04-22T05:58:41.613Z,1013.19
2017-04-22T05:59:50.895Z,1013.1
2017-04-22T06:00:59.848Z,1013.17
2017-04-22T06:02:09.054Z,1013.15
2017-04-22T06:03:18.004Z,1013.2
2017-04-22T06:04:26.967Z,1013.15
2017-04-22T06:05:35.911Z,1013.21
2017-04-22T06:06:44.857Z,1013.21
2017-04-22T06:07:54.103Z,1013.24
2017-04-22T06:09:03.050Z,1013.2
2017-04-22T06:10:11.998Z,1013.23
2017-04-22T06:11:20.948Z,1013.3
2017-04-22T06:12:29.895Z,1013.25
2017-04-22T06:13:39.147Z,1013.23
2017-04-22T06:14:48.429Z,1013.2
2017-04-22T06:15:57.465Z,1013.19
2017-04-22T06:17:06.419Z,1013.28
2017-04-22T06:18:15.369Z,1013.35
2017-04-22T06:19:24.949Z,1013.25
2017-04-22T06:20:33.897Z,1013.23
2017-04-22T06:21:42.844Z,1013.22
2017-04-22T06:22:51.874Z,1013.23
2017-04-22T06:24:00.905Z,1013.3
2017-04-22T06:25:10.295Z,1013.18
2017-04-22T06:26:19.244Z,1013.24
2017-04-22T06:27:28.498Z,1013.23
2017-04-22T06:28:37.447Z,1013.27
2017-04-22T06:29:46.404Z,1013.07
2017-04-22T06:30:55.657Z,1013.17
2017-04-22T06:32:04.609Z,1013.22
2017-04-22T06:33:13.560Z,1013.14
2017-04-22T06:34:22.511Z,1013.16
2017-04-22T06:35:31.466Z,1013.15
2017-04-22T06:36:40.661Z,1013.14
2017-04-22T06:37:49.611Z,1013.11
2017-04-22T06:38:58.558Z,1013.1
2017-04-22T06:40:07.509Z,1013.12
2017-04-22T06:41:16.452Z,1013.2
2017-04-22T06:42:25.699Z,1013.1
2017-04-22T06:43:34.650Z,1013.16
2017-04-22T06:44:43.603Z,1013.22
2017-04-22T06:45:52.549Z,1013.22
2017-04-22T06:47:01.834Z,1013.1
2017-04-22T06:48:11.093Z,1013.14
2017-04-22T06:49:20.295Z,1013.09
2017-04-22T06:50:29.367Z,1013.03
2017-04-22T06:51:38.319Z,1013.07
2017-04-22T06:52:47.266Z,1013.12
2017-04-22T06:53:56.464Z,1013.08
2017-04-22T06:55:05.425Z,1013.15
2017-04-22T06:56:14.375Z,1013.12
2017-04-22T06:57:23.323Z,1013.14
2017-04-22T06:58:32.271Z,1013.09
2017-04-22T06:59:41.473Z,1013.15
2017-04-22T07:00:50.421Z,1013.15
2017-04-22T07:01:59.369Z,1013.08
2017-04-22T07:03:08.319Z,1013.18
2017-04-22T07:04:17.273Z,1013.04
2017-04-22T07:05:26.530Z,1013.09
2017-04-22T07:06:35.482Z,1013.15
2017-04-22T07:07:44.429Z,1013.13
2017-04-22T07:08:53.386Z,1013.15
2017-04-22T07:10:02.337Z,1013.1
2017-04-22T07:11:11.541Z,1013.07
2017-04-22T07:12:20.811Z,1013.1
2017-04-22T07:13:29.752Z,1013.11
2017-04-22T07:14:38.712Z,1013.08
2017-04-22T07:15:47.658Z,1013.13
2017-04-22T07:16:56.907Z,1013.08
2017-04-22T07:18:05.874Z,1013.11
2017-04-22T07:19:14.832Z,1013.09
2017-04-22T07:20:23.797Z,1013.07
2017-04-22T07:21:32.757Z,1013.05
2017-04-22T07:22:42.004Z,1013.08
2017-04-22T07:23:50.974Z,1013.06
2017-04-22T07:24:59.934Z,1013.05
2017-04-22T07:26:09.002Z,1013.07
2017-04-22T07:27:18.051Z,1012.88
2017-04-22T07:28:27.519Z,1013.05
2017-04-22T07:29:36.467Z,1013
2017-04-22T07:30:45.418Z,1013.04
2017-04-22T07:31:54.363Z,1012.96
2017-04-22T07:33:03.310Z,1012.94
2017-04-22T07:34:12.657Z,1013.1
2017-04-22T07:35:21.612Z,1012.96
2017-04-22T07:36:30.560Z,1013.07
2017-04-22T07:37:39.832Z,1013.01
2017-04-22T07:38:48.790Z,1013
2017-04-22T07:39:57.998Z,1013.07
2017-04-22T07:41:07.273Z,1012.99
2017-04-22T07:42:16.238Z,1012.98
2017-04-22T07:43:25.190Z,1013.09
2017-04-22T07:44:34.138Z,1012.95
2017-04-22T07:45:43.389Z,1013.04
2017-04-22T07:46:52.335Z,1013.06
2017-04-22T07:48:01.295Z,1013.01
2017-04-22T07:49:10.245Z,1013.09
2017-04-22T07:50:19.195Z,1013.04
2017-04-22T07:51:28.441Z,1013.02
2017-04-22T07:52:37.391Z,1013.04
2017-04-22T07:53:46.673Z,1013.09
2017-04-22T07:54:55.617Z,1013.02
2017-04-22T07:56:04.568Z,1013.03
2017-04-22T07:57:13.767Z,1013.07
2017-04-22T07:58:22.725Z,1013.05
2017-04-22T07:59:32.003Z,1013.07
2017-04-22T08:00:40.948Z,1013.02
2017-04-22T08:01:50.224Z,1012.97
2017-04-22T08:02:59.476Z,1012.97
2017-04-22T08:04:08.435Z,1013.05
2017-04-22T08:05:17.389Z,1013.05
2017-04-22T08:06:26.367Z,1013.08
2017-04-22T08:07:35.313Z,1013
2017-04-22T08:08:44.518Z,1012.96
2017-04-22T08:09:53.475Z,1012.98
2017-04-22T08:11:02.427Z,1012.97
2017-04-22T08:12:11.379Z,1012.87
2017-04-22T08:13:20.332Z,1012.92
2017-04-22T08:14:29.864Z,1012.98
2017-04-22T08:15:38.817Z,1012.97
2017-04-22T08:16:48.268Z,1012.91
2017-04-22T08:17:57.213Z,1012.86
2017-04-22T08:19:06.167Z,1012.88
2017-04-22T08:20:15.377Z,1012.85
2017-04-22T08:21:24.325Z,1012.86
2017-04-22T08:22:33.274Z,1012.84
2017-04-22T08:23:42.227Z,1012.89
2017-04-22T08:24:51.184Z,1012.97
2017-04-22T08:26:00.391Z,1012.89
2017-04-22T08:27:09.343Z,1012.85
2017-04-22T08:28:18.295Z,1012.92
2017-04-22T08:29:27.258Z,1012.88
2017-04-22T08:30:36.294Z,1012.95
2017-04-22T08:31:45.494Z,1012.9
2017-04-22T08:32:54.515Z,1013
2017-04-22T08:34:03.729Z,1012.99
2017-04-22T08:35:13.004Z,1013
2017-04-22T08:36:21.960Z,1012.94
2017-04-22T08:37:31.207Z,1012.99
2017-04-22T08:38:40.164Z,1013.04
2017-04-22T08:39:49.121Z,1012.99
2017-04-22T08:40:58.079Z,1013
2017-04-22T08:42:07.352Z,1012.95
2017-04-22T08:43:16.616Z,1013.04
2017-04-22T08:44:25.571Z,1013.08
2017-04-22T08:45:34.528Z,1012.97
2017-04-22T08:46:43.588Z,1013.05
2017-04-22T08:48:00.980Z,1012.99
2017-04-22T08:49:10.181Z,1013.09
2017-04-22T08:50:19.132Z,1013.15
2017-04-22T08:51:28.093Z,1013.14
2017-04-22T08:52:37.043Z,1013.16
2017-04-22T08:53:46.016Z,1013.06
2017-04-22T08:54:55.927Z,1013.08
2017-04-22T08:56:04.882Z,1013.11
2017-04-22T08:57:13.831Z,1012.91
2017-04-22T08:58:22.786Z,1013.07
2017-04-22T08:59:31.746Z,1013.13
2017-04-22T09:00:40.955Z,1012.9
2017-04-22T09:01:49.908Z,1012.89
2017-04-22T09:02:58.858Z,1012.96
2017-04-22T09:04:07.806Z,1012.87
2017-04-22T09:05:16.765Z,1012.93
2017-04-22T09:06:25.960Z,1012.88
2017-04-22T09:07:34.905Z,1012.94
2017-04-22T09:08:43.861Z,1012.97
2017-04-22T09:09:52.807Z,1012.99
2017-04-22T09:11:01.770Z,1013.08
2017-04-22T09:12:10.967Z,1013.06
2017-04-22T09:13:19.918Z,1012.82
2017-04-22T09:14:28.876Z,1013.05
2017-04-22T09:15:37.829Z,1012.96
2017-04-22T09:16:46.779Z,1012.88
2017-04-22T09:17:55.975Z,1012.92
2017-04-22T09:19:04.929Z,1012.89
2017-04-22T09:20:13.882Z,1012.85
2017-04-22T09:21:22.831Z,1012.89
2017-04-22T09:22:31.783Z,1012.91
2017-04-22T09:23:41.030Z,1012.92
2017-04-22T09:24:49.983Z,1012.93
2017-04-22T09:25:58.935Z,1012.92
2017-04-22T09:27:08.211Z,1013.07
2017-04-22T09:28:17.160Z,1012.95
2017-04-22T09:29:26.413Z,1012.97
2017-04-22T09:30:35.363Z,1013.06
2017-04-22T09:31:44.308Z,1013.04
2017-04-22T09:32:53.258Z,1013.03
2017-04-22T09:34:02.210Z,1013.09
2017-04-22T09:35:11.452Z,1013.13
2017-04-22T09:36:20.722Z,1013.1
2017-04-22T09:37:29.668Z,1013.18
2017-04-22T09:38:38.623Z,1013.14
2017-04-22T09:39:47.576Z,1013.13
2017-04-22T09:40:56.780Z,1013.13
2017-04-22T09:42:05.730Z,1013.06
2017-04-22T09:43:14.676Z,1013.08
2017-04-22T09:44:23.628Z,1013.04
2017-04-22T09:45:32.580Z,1013.09
2017-04-22T09:46:41.781Z,1012.95
2017-04-22T09:47:50.744Z,1012.94
2017-04-22T09:48:59.702Z,1012.95
2017-04-22T09:50:08.655Z,1012.93
2017-04-22T09:51:17.610Z,1012.95
2017-04-22T09:52:26.816Z,1012.87
2017-04-22T09:53:35.774Z,1012.85
2017-04-22T09:54:44.726Z,1012.82
2017-04-22T09:55:53.680Z,1012.7
2017-04-22T09:57:02.631Z,1012.71
2017-04-22T09:58:11.831Z,1012.7
2017-04-22T09:59:20.786Z,1012.65
2017-04-22T10:00:29.743Z,1012.65
2017-04-22T10:01:38.742Z,1012.68
2017-04-22T10:02:47.733Z,1012.7
2017-04-22T10:03:57.041Z,1012.76
2017-04-22T10:05:06.003Z,1012.72
2017-04-22T10:06:14.953Z,1012.74
2017-04-22T10:07:23.923Z,1012.66
2017-04-22T10:08:32.874Z,1012.77
2017-04-22T10:09:42.130Z,1012.76
2017-04-22T10:10:51.090Z,1012.79
2017-04-22T10:12:00.056Z,1012.68
2017-04-22T10:13:09.012Z,1012.76
2017-04-22T10:14:17.960Z,1012.79
2017-04-22T10:15:27.213Z,1012.77
2017-04-22T10:16:36.255Z,1012.76
2017-04-22T10:17:45.295Z,1012.67
2017-04-22T10:18:54.244Z,1012.67
2017-04-22T10:20:03.196Z,1012.59
2017-04-22T10:21:12.398Z,1012.69
2017-04-22T10:22:21.353Z,1012.74
2017-04-22T10:23:30.307Z,1012.66
2017-04-22T10:24:39.263Z,1012.75
2017-04-22T10:25:48.218Z,1012.69
2017-04-22T10:26:57.425Z,1012.66
2017-04-22T10:28:06.373Z,1012.64
2017-04-22T10:29:15.350Z,1012.64
2017-04-22T10:30:24.399Z,1012.66
2017-04-22T10:31:33.351Z,1012.61
2017-04-22T10:32:42.615Z,1012.62
2017-04-22T10:33:51.588Z,1012.59
2017-04-22T10:35:00.890Z,1012.62
2017-04-22T10:36:09.841Z,1012.6
2017-04-22T10:37:18.798Z,1012.51
2017-04-22T10:38:28.056Z,1012.5
2017-04-22T10:39:37.010Z,1012.45
2017-04-22T10:40:45.966Z,1012.38
2017-04-22T10:41:54.921Z,1012.4
2017-04-22T10:43:03.876Z,1012.38
2017-04-22T10:44:13.084Z,1012.5
2017-04-22T10:45:22.038Z,1012.41
2017-04-22T10:46:30.985Z,1012.37
2017-04-22T10:47:39.937Z,1012.46
2017-04-22T10:48:48.889Z,1012.5
2017-04-22T10:49:58.092Z,1012.56
2017-04-22T10:51:07.365Z,1012.54
2017-04-22T10:52:16.315Z,1012.53
2017-04-22T10:53:25.264Z,1012.56
2017-04-22T10:54:34.218Z,1012.62
2017-04-22T10:55:43.474Z,1012.67
2017-04-22T10:56:52.509Z,1012.65
2017-04-22T10:58:01.545Z,1012.68
2017-04-22T10:59:10.506Z,1012.62
2017-04-22T11:00:19.477Z,1012.66
2017-04-22T11:01:28.727Z,1012.53
2017-04-22T11:02:37.687Z,1012.51
2017-04-22T11:03:46.640Z,1012.55
2017-04-22T11:04:55.680Z,1012.53
2017-04-22T11:06:04.660Z,1012.59
2017-04-22T11:07:13.916Z,1012.48
2017-04-22T11:08:22.874Z,1012.52
2017-04-22T11:09:31.823Z,1012.44
2017-04-22T11:10:40.780Z,1012.41
2017-04-22T11:11:49.742Z,1012.45
2017-04-22T11:12:58.948Z,1012.47
2017-04-22T11:14:07.913Z,1012.4
2017-04-22T11:15:16.867Z,1012.39
2017-04-22T11:16:25.816Z,1012.38
2017-04-22T11:17:34.853Z,1012.35
2017-04-22T11:18:44.059Z,1012.36
2017-04-22T11:19:53.015Z,1012.31
2017-04-22T11:21:01.969Z,1012.17
2017-04-22T11:22:11.248Z,1012.3
2017-04-22T11:23:20.198Z,1012.28
2017-04-22T11:24:29.454Z,1012.17
2017-04-22T11:25:38.406Z,1012.22
2017-04-22T11:26:47.357Z,1012.15
2017-04-22T11:27:56.631Z,1012.11
2017-04-22T11:29:05.584Z,1012.13
2017-04-22T11:30:14.846Z,1012.15
2017-04-22T11:31:23.799Z,1012.05
2017-04-22T11:32:33.103Z,1012.1
2017-04-22T11:33:42.379Z,1011.99
2017-04-22T11:34:51.336Z,1011.94
2017-04-22T11:36:00.541Z,1011.98
2017-04-22T11:37:09.488Z,1012.07
2017-04-22T11:38:18.439Z,1011.99
2017-04-22T11:39:27.394Z,1011.99
2017-04-22T11:40:36.343Z,1011.91
2017-04-22T11:41:45.590Z,1012.02
2017-04-22T11:42:54.549Z,1012.09
2017-04-22T11:44:03.504Z,1012.02
2017-04-22T11:45:12.456Z,1011.99
2017-04-22T11:46:21.540Z,1012.03
2017-04-22T11:47:31.130Z,1011.79
2017-04-22T11:48:40.091Z,1011.9
2017-04-22T11:49:49.046Z,1011.82
2017-04-22T11:50:57.999Z,1011.95
2017-04-22T11:52:06.958Z,1012.01
2017-04-22T11:53:16.305Z,1012
2017-04-22T11:54:25.269Z,1011.91
2017-04-22T11:55:34.332Z,1011.89
2017-04-22T11:56:43.292Z,1011.89
2017-04-22T11:57:52.243Z,1011.9
2017-04-22T11:59:01.495Z,1011.86
2017-04-22T12:00:10.453Z,1011.84
2017-04-22T12:01:19.405Z,1011.86
2017-04-22T12:02:28.432Z,1011.75
2017-04-22T12:03:37.388Z,1011.84
2017-04-22T12:04:46.703Z,1011.84
2017-04-22T12:05:56.070Z,1011.77
2017-04-22T12:07:05.018Z,1011.66
2017-04-22T12:08:13.968Z,1011.67
2017-04-22T12:09:22.924Z,1011.84
2017-04-22T12:10:32.130Z,1011.72
2017-04-22T12:11:41.099Z,1011.69
2017-04-22T12:12:50.055Z,1011.77
2017-04-22T12:13:59.010Z,1011.73
2017-04-22T12:15:07.966Z,1011.77
2017-04-22T12:16:17.224Z,1011.71
2017-04-22T12:17:26.178Z,1011.72
2017-04-22T12:18:35.133Z,1011.73
2017-04-22T12:19:44.082Z,1011.83
2017-04-22T12:20:53.040Z,1011.74
2017-04-22T12:22:02.241Z,1011.76
2017-04-22T12:23:11.190Z,1011.7
2017-04-22T12:24:20.146Z,1011.76
2017-04-22T12:25:29.103Z,1011.73
2017-04-22T12:26:38.077Z,1011.75
2017-04-22T12:27:47.330Z,1011.73
2017-04-22T12:28:56.286Z,1011.77
2017-04-22T12:30:05.240Z,1011.8
2017-04-22T12:31:14.211Z,1011.81
2017-04-22T12:32:23.164Z,1011.75
2017-04-22T12:33:32.428Z,1011.74
2017-04-22T12:34:41.385Z,1011.83
2017-04-22T12:35:50.358Z,1011.83
2017-04-22T12:36:59.316Z,1011.81
2017-04-22T12:38:08.265Z,1011.8
2017-04-22T12:39:17.545Z,1011.77
2017-04-22T12:40:26.509Z,1011.79
2017-04-22T12:41:35.465Z,1011.79
2017-04-22T12:42:44.416Z,1011.75
2017-04-22T12:43:53.377Z,1011.74
2017-04-22T12:45:02.602Z,1011.78
2017-04-22T12:46:11.575Z,1011.7
2017-04-22T12:47:20.567Z,1011.61
2017-04-22T12:48:29.517Z,1011.71
2017-04-22T12:49:38.472Z,1011.69
2017-04-22T12:50:47.679Z,1011.67
2017-04-22T12:51:56.626Z,1011.65
2017-04-22T12:53:05.668Z,1011.69
2017-04-22T12:54:14.624Z,1011.63
2017-04-22T12:55:23.584Z,1011.69
2017-04-22T12:56:32.847Z,1011.61
2017-04-22T12:57:41.798Z,1011.62
2017-04-22T12:58:50.905Z,1011.56
2017-04-22T13:00:00.101Z,1011.58
2017-04-22T13:01:09.186Z,1011.59
2017-04-22T13:02:18.712Z,1011.64
2017-04-22T13:03:27.823Z,1011.58
2017-04-22T13:04:36.783Z,1011.63
2017-04-22T13:05:45.734Z,1011.52
2017-04-22T13:06:54.685Z,1011.47
2017-04-22T13:08:03.940Z,1011.4
2017-04-22T13:09:13.012Z,1011.54
2017-04-22T13:10:22.088Z,1011.51
2017-04-22T13:11:31.163Z,1011.45
2017-04-22T13:12:40.114Z,1011.55
2017-04-22T13:13:49.339Z,1011.44
2017-04-22T13:14:58.413Z,1011.49
2017-04-22T13:16:07.514Z,1011.5
2017-04-22T13:17:16.466Z,1011.44
2017-04-22T13:18:25.420Z,1011.46
2017-04-22T13:19:34.712Z,1011.37
2017-04-22T13:20:43.728Z,1011.42
2017-04-22T13:21:52.681Z,1011.54
2017-04-22T13:23:01.640Z,1011.5
2017-04-22T13:24:10.600Z,1011.52
2017-04-22T13:25:19.826Z,1011.47
2017-04-22T13:26:28.782Z,1011.53
2017-04-22T13:27:37.735Z,1011.55
2017-04-22T13:28:46.696Z,1011.51
2017-04-22T13:29:55.649Z,1011.5
2017-04-22T13:31:04.989Z,1011.48
2017-04-22T13:32:13.965Z,1011.43
2017-04-22T13:33:22.917Z,1011.48
2017-04-22T13:34:31.869Z,1011.41
2017-04-22T13:35:40.831Z,1011.43
2017-04-22T13:36:50.092Z,1011.36
2017-04-22T13:37:59.042Z,1011.38
2017-04-22T13:39:07.994Z,1011.33
2017-04-22T13:40:17.045Z,1011.42
2017-04-22T13:41:26.103Z,1011.26
2017-04-22T13:42:35.403Z,1011.38
2017-04-22T13:43:44.360Z,1011.28
2017-04-22T13:44:53.310Z,1011.23
2017-04-22T13:46:02.264Z,1011.3
2017-04-22T13:47:11.220Z,1011.21
2017-04-22T13:48:20.423Z,1011.22
2017-04-22T13:49:29.379Z,1011.23
2017-04-22T13:50:38.338Z,1011.18
2017-04-22T13:51:47.318Z,1011.22
2017-04-22T13:52:56.268Z,1011.24
2017-04-22T13:54:05.533Z,1011.16
2017-04-22T13:55:14.492Z,1011.1
2017-04-22T13:56:23.451Z,1011.18
2017-04-22T13:57:32.401Z,1011.12
2017-04-22T13:58:41.350Z,1011.11